createdAt,value
2022-09-12T00:01:10.534Z,99.90
2022-09-12T00:03:40.865Z,99.90
2022-09-12T00:06:11.025Z,99.90
2022-09-12T00:08:39.120Z,99.90
2022-09-12T00:11:09.698Z,99.90
2022-09-12T00:13:41.853Z,99.90
2022-09-12T00:16:17.295Z,99.90
2022-09-12T00:18:47.069Z,99.90
2022-09-12T00:21:15.988Z,99.90
2022-09-12T00:23:43.945Z,99.90
2022-09-12T00:26:12.578Z,99.90
2022-09-12T00:28:42.898Z,99.90
2022-09-12T00:31:13.461Z,99.90
2022-09-12T00:33:41.800Z,99.90
2022-09-12T00:36:12.316Z,99.90
2022-09-12T00:38:42.040Z,99.90
2022-09-12T00:41:16.609Z,99.90
2022-09-12T00:43:47.777Z,99.90
2022-09-12T00:46:28.941Z,99.90
2022-09-12T00:49:02.557Z,99.90
2022-09-12T00:51:32.371Z,99.90
2022-09-12T00:54:03.846Z,99.90
2022-09-12T00:56:32.418Z,99.90
2022-09-12T00:59:06.303Z,99.90
2022-09-12T01:01:35.467Z,99.90
2022-09-12T01:04:04.414Z,99.90
2022-09-12T01:06:37.419Z,99.90
2022-09-12T01:09:06.110Z,99.90
2022-09-12T01:11:37.418Z,99.90
2022-09-12T01:14:08.988Z,99.90
2022-09-12T01:16:38.393Z,99.90
2022-09-12T01:19:26.557Z,99.90
2022-09-12T01:22:13.523Z,99.90
2022-09-12T01:24:59.485Z,99.90
2022-09-12T01:27:51.686Z,99.90
2022-09-12T01:30:44.506Z,99.90
2022-09-12T01:33:44.933Z,99.90
2022-09-12T01:36:34.452Z,99.90
2022-09-12T01:39:05.243Z,99.90
2022-09-12T01:41:43.456Z,99.90
2022-09-12T01:44:19.333Z,99.90
2022-09-12T01:46:54.955Z,99.90
2022-09-12T01:49:26.068Z,99.90
2022-09-12T01:52:00.101Z,99.90
2022-09-12T01:54:35.009Z,99.90
2022-09-12T01:57:08.530Z,99.90
2022-09-12T01:59:42.995Z,99.90
2022-09-12T02:02:16.377Z,99.90
2022-09-12T02:04:52.110Z,99.90
2022-09-12T02:07:23.682Z,99.90
2022-09-12T02:09:55.707Z,99.90
2022-09-12T02:12:30.261Z,99.90
2022-09-12T02:15:03.333Z,99.90
2022-09-12T02:17:39.099Z,99.90
2022-09-12T02:20:25.905Z,99.90
2022-09-12T02:23:04.224Z,99.90
2022-09-12T02:25:32.516Z,99.90
2022-09-12T02:28:05.094Z,99.90
2022-09-12T02:30:40.742Z,99.90
2022-09-12T02:33:19.321Z,99.90
2022-09-12T02:35:50.138Z,99.90
2022-09-12T02:38:29.178Z,99.90
2022-09-12T02:40:57.418Z,99.90
2022-09-12T02:43:25.752Z,99.90
2022-09-12T02:45:54.121Z,99.90
2022-09-12T02:48:28.530Z,99.90
2022-09-12T02:50:57.068Z,99.90
2022-09-12T02:53:25.180Z,99.90
2022-09-12T02:55:54.018Z,99.90
2022-09-12T02:58:25.194Z,99.90
2022-09-12T03:00:58.741Z,99.90
2022-09-12T03:03:46.588Z,99.90
2022-09-12T03:06:19.764Z,99.90
2022-09-12T03:09:00.263Z,99.90
2022-09-12T03:11:50.808Z,99.90
2022-09-12T03:14:36.681Z,99.90
2022-09-12T03:17:13.172Z,99.90
2022-09-12T03:19:55.769Z,99.90
2022-09-12T03:22:32.535Z,99.90
2022-09-12T03:25:07.261Z,99.90
2022-09-12T03:27:38.235Z,99.90
2022-09-12T03:30:07.774Z,99.90
2022-09-12T03:32:43.757Z,99.90
2022-09-12T03:35:14.549Z,99.90
2022-09-12T03:37:42.748Z,99.90
2022-09-12T03:40:12.385Z,99.90
2022-09-12T03:42:40.605Z,99.90
2022-09-12T03:45:10.663Z,99.90
2022-09-12T03:47:38.604Z,99.90
2022-09-12T03:50:07.571Z,99.90
2022-09-12T03:52:37.216Z,99.90
2022-09-12T03:55:06.014Z,99.90
2022-09-12T03:57:33.976Z,99.90
2022-09-12T04:00:02.570Z,99.90
2022-09-12T04:02:40.649Z,99.90
2022-09-12T04:05:09.109Z,99.90
2022-09-12T04:07:38.452Z,99.90
2022-09-12T04:10:07.381Z,99.90
2022-09-12T04:12:35.837Z,99.90
2022-09-12T04:15:04.005Z,99.90
2022-09-12T04:17:31.968Z,99.90
2022-09-12T04:19:59.975Z,99.90
2022-09-12T04:22:28.028Z,99.90
2022-09-12T04:24:57.307Z,99.90
2022-09-12T04:27:25.281Z,99.90
2022-09-12T04:29:54.051Z,99.90
2022-09-12T04:32:22.167Z,99.90
2022-09-12T04:34:52.318Z,99.90
2022-09-12T04:37:21.174Z,99.90
2022-09-12T04:39:49.713Z,99.90
2022-09-12T04:42:19.109Z,99.90
2022-09-12T04:44:47.118Z,99.90
2022-09-12T04:47:15.046Z,99.90
2022-09-12T04:49:43.020Z,99.90
2022-09-12T04:52:10.996Z,99.90
2022-09-12T04:54:39.597Z,99.90
2022-09-12T04:57:07.602Z,99.90
2022-09-12T04:59:36.902Z,99.90
2022-09-12T05:02:05.871Z,99.90
2022-09-12T05:04:34.877Z,99.90
2022-09-12T05:07:03.209Z,99.90
2022-09-12T05:09:31.149Z,99.90
2022-09-12T05:12:04.243Z,99.90
2022-09-12T05:14:33.774Z,99.90
2022-09-12T05:17:03.530Z,99.90
2022-09-12T05:19:32.944Z,99.90
2022-09-12T05:22:01.026Z,99.90
2022-09-12T05:24:29.281Z,99.90
2022-09-12T05:26:57.395Z,99.90
2022-09-12T05:29:25.588Z,99.90
2022-09-12T05:31:53.770Z,99.90
2022-09-12T05:34:23.523Z,99.90
2022-09-12T05:36:51.522Z,99.90
2022-09-12T05:39:19.514Z,99.90
2022-09-12T05:41:47.739Z,99.90
2022-09-12T05:44:16.508Z,99.90
2022-09-12T05:46:46.646Z,99.90
2022-09-12T05:49:15.450Z,99.90
2022-09-12T05:51:46.432Z,99.90
2022-09-12T05:54:15.974Z,99.90
2022-09-12T05:56:44.981Z,99.90
2022-09-12T05:59:15.166Z,99.90
2022-09-12T06:01:43.317Z,99.90
2022-09-12T06:04:12.074Z,99.90
2022-09-12T06:06:43.472Z,99.90
2022-09-12T06:09:13.839Z,99.90
2022-09-12T06:11:42.364Z,99.90
2022-09-12T06:14:11.456Z,99.90
2022-09-12T06:16:40.140Z,99.90
2022-09-12T06:19:13.581Z,99.90
2022-09-12T06:21:41.608Z,99.90
2022-09-12T06:24:09.729Z,99.90
2022-09-12T06:26:39.303Z,99.90
2022-09-12T06:29:07.689Z,99.90
2022-09-12T06:31:37.534Z,99.90
2022-09-12T06:34:08.059Z,99.90
2022-09-12T06:36:38.561Z,99.90
2022-09-12T06:39:08.974Z,99.90
2022-09-12T06:41:39.391Z,99.90
2022-09-12T06:44:15.964Z,99.90
2022-09-12T06:46:44.288Z,99.90
2022-09-12T06:49:13.027Z,99.90
2022-09-12T06:51:42.049Z,99.90
2022-09-12T06:54:11.666Z,99.90
2022-09-12T06:56:39.672Z,99.90
2022-09-12T06:59:07.805Z,99.90
2022-09-12T07:01:37.258Z,99.90
2022-09-12T07:04:05.503Z,99.90
2022-09-12T07:06:37.662Z,99.90
2022-09-12T07:09:07.348Z,99.90
2022-09-12T07:11:37.017Z,99.90
2022-09-12T07:14:06.751Z,99.90
2022-09-12T07:16:37.805Z,99.90
2022-09-12T07:19:07.962Z,99.90
2022-09-12T07:21:39.692Z,99.90
2022-09-12T07:24:09.710Z,99.90
2022-09-12T07:26:38.526Z,99.90
2022-09-12T07:31:56.426Z,99.90
2022-09-12T07:34:24.403Z,99.90
2022-09-12T07:36:52.402Z,99.90
2022-09-12T07:39:20.547Z,99.90
2022-09-12T07:41:48.573Z,99.90
2022-09-12T07:44:16.544Z,96.30
2022-09-12T07:46:44.533Z,93.90
2022-09-12T07:49:14.427Z,92.20
2022-09-12T07:51:43.332Z,87.80
2022-09-12T07:54:11.878Z,81.50
2022-09-12T07:56:40.794Z,75.40
2022-09-12T07:59:09.339Z,77.90
2022-09-12T08:01:37.388Z,80.40
2022-09-12T08:04:05.871Z,76.30
2022-09-12T08:06:36.958Z,75.00
2022-09-12T08:09:06.270Z,79.70
2022-09-12T08:11:34.361Z,81.40
2022-09-12T08:14:03.163Z,78.20
2022-09-12T08:16:32.954Z,79.00
2022-09-12T08:19:02.179Z,81.60
2022-09-12T08:21:31.685Z,85.20
2022-09-12T08:24:02.532Z,89.80
2022-09-12T08:26:31.070Z,88.00
2022-09-12T08:28:59.255Z,84.40
2022-09-12T08:31:28.752Z,81.30
2022-09-12T08:33:57.851Z,83.10
2022-09-12T08:36:27.907Z,82.60
2022-09-12T08:38:59.962Z,81.30
2022-09-12T08:41:34.834Z,81.00
2022-09-12T08:44:22.762Z,80.50
2022-09-12T08:47:09.332Z,79.90
2022-09-12T08:49:43.131Z,79.50
2022-09-12T08:52:15.862Z,75.40
2022-09-12T08:54:45.656Z,78.90
2022-09-12T08:57:16.313Z,77.10
2022-09-12T08:59:46.363Z,76.30
2022-09-12T09:02:32.000Z,72.20
2022-09-12T09:05:08.015Z,74.40
2022-09-12T09:08:06.357Z,73.20
2022-09-12T09:10:44.811Z,72.50
2022-09-12T09:13:41.437Z,73.10
2022-09-12T09:16:17.067Z,72.10
2022-09-12T09:18:48.381Z,73.80
2022-09-12T09:21:24.787Z,75.60
2022-09-12T09:24:00.945Z,78.10
2022-09-12T09:26:35.925Z,81.90
2022-09-12T09:29:12.805Z,83.80
2022-09-12T09:31:41.449Z,84.40
2022-09-12T09:34:16.687Z,83.60
2022-09-12T09:36:51.350Z,80.20
2022-09-12T09:39:30.029Z,76.80
2022-09-12T09:42:11.037Z,72.60
2022-09-12T09:44:41.069Z,69.10
2022-09-12T09:47:11.645Z,70.30
2022-09-12T09:49:40.322Z,70.70
2022-09-12T09:52:09.469Z,75.20
2022-09-12T09:54:41.634Z,76.30
2022-09-12T09:57:40.673Z,77.60
2022-09-12T10:00:28.353Z,79.70
2022-09-12T10:03:22.008Z,82.10
2022-09-12T10:05:52.083Z,82.60
2022-09-12T10:08:26.250Z,83.70
2022-09-12T10:10:55.968Z,83.80
2022-09-12T10:13:29.117Z,80.90
2022-09-12T10:16:00.499Z,77.70
2022-09-12T10:18:39.648Z,78.20
2022-09-12T10:21:30.368Z,74.40
2022-09-12T10:24:05.192Z,72.20
2022-09-12T10:26:36.739Z,71.60
2022-09-12T10:29:13.454Z,70.20
2022-09-12T10:31:49.720Z,72.00
2022-09-12T10:34:30.514Z,69.30
2022-09-12T10:37:03.463Z,68.80
2022-09-12T10:39:32.733Z,68.70
2022-09-12T10:42:01.319Z,67.50
2022-09-12T10:44:31.690Z,68.60
2022-09-12T10:47:20.316Z,67.60
2022-09-12T10:49:48.282Z,67.40
2022-09-12T10:52:23.083Z,67.00
2022-09-12T10:54:51.757Z,65.90
2022-09-12T10:57:53.969Z,62.20
2022-09-12T11:00:27.762Z,63.10
2022-09-12T11:03:10.211Z,63.50
2022-09-12T11:05:52.481Z,65.40
2022-09-12T11:08:44.177Z,64.20
2022-09-12T11:11:26.219Z,64.10
2022-09-12T11:14:08.419Z,66.00
2022-09-12T11:16:44.685Z,66.90
2022-09-12T11:19:29.271Z,68.20
2022-09-12T11:22:13.229Z,68.10
2022-09-12T11:25:12.115Z,68.80
2022-09-12T11:27:54.963Z,68.80
2022-09-12T11:30:23.097Z,69.40
2022-09-12T11:33:06.563Z,69.80
2022-09-12T11:35:39.297Z,72.20
2022-09-12T11:38:23.513Z,72.30
2022-09-12T11:40:55.957Z,73.10
2022-09-12T11:43:34.201Z,74.70
2022-09-12T11:46:11.569Z,74.60
2022-09-12T11:48:45.679Z,74.60
2022-09-12T11:51:20.719Z,74.90
2022-09-12T11:54:00.828Z,74.70
2022-09-12T11:56:28.776Z,72.60
2022-09-12T11:59:02.638Z,72.20
2022-09-12T12:01:40.951Z,74.00
2022-09-12T12:04:13.478Z,73.80
2022-09-12T12:06:52.064Z,73.20
2022-09-12T12:09:20.170Z,72.30
2022-09-12T12:11:54.169Z,72.60
2022-09-12T12:14:26.200Z,73.10
2022-09-12T12:16:54.369Z,72.60
2022-09-12T12:19:34.731Z,72.80
2022-09-12T12:22:18.145Z,73.10
2022-09-12T12:25:05.499Z,71.80
2022-09-12T12:27:55.425Z,72.20
2022-09-12T12:31:01.205Z,72.60
2022-09-12T12:34:05.289Z,71.70
2022-09-12T12:36:38.571Z,73.40
2022-09-12T12:39:47.764Z,75.20
2022-09-12T12:43:04.511Z,75.50
2022-09-12T12:46:08.776Z,75.40
2022-09-12T12:48:51.013Z,75.50
2022-09-12T12:51:46.521Z,74.80
2022-09-12T12:54:53.178Z,73.90
2022-09-12T12:57:30.769Z,74.30
2022-09-12T13:00:04.195Z,75.10
2022-09-12T13:02:37.031Z,74.80
2022-09-12T13:05:08.003Z,74.10
2022-09-12T13:07:39.608Z,74.20
2022-09-12T13:10:08.976Z,73.50
2022-09-12T13:12:44.958Z,74.40
2022-09-12T13:15:45.741Z,74.70
2022-09-12T13:18:19.642Z,76.00
2022-09-12T13:20:53.029Z,76.60
2022-09-12T13:23:27.618Z,76.70
2022-09-12T13:25:57.748Z,75.20
2022-09-12T13:28:27.328Z,75.60
2022-09-12T13:31:02.870Z,75.90
2022-09-12T13:33:41.441Z,75.60
2022-09-12T13:36:28.232Z,76.30
2022-09-12T13:39:15.209Z,76.80
2022-09-12T13:42:20.017Z,77.60
2022-09-12T13:44:51.910Z,75.90
2022-09-12T13:47:27.680Z,76.70
2022-09-12T13:49:58.217Z,77.40
2022-09-12T13:52:29.192Z,76.20
2022-09-12T13:54:59.407Z,75.90
2022-09-12T13:57:33.406Z,77.00
2022-09-12T14:00:05.888Z,78.30
2022-09-12T14:02:36.858Z,77.10
2022-09-12T14:05:14.431Z,76.60
2022-09-12T14:07:54.409Z,76.40
2022-09-12T14:10:33.031Z,76.60
2022-09-12T14:13:02.761Z,76.70
2022-09-12T14:15:33.737Z,76.40
2022-09-12T14:18:03.591Z,77.30
2022-09-12T14:20:36.894Z,78.00
2022-09-12T14:23:08.142Z,77.90
2022-09-12T14:25:39.042Z,77.20
2022-09-12T14:28:07.593Z,77.40
2022-09-12T14:30:37.512Z,78.70
2022-09-12T14:33:17.613Z,77.40
2022-09-12T14:35:49.412Z,78.50
2022-09-12T14:38:25.274Z,79.00
2022-09-12T14:41:00.627Z,79.40
2022-09-12T14:43:30.445Z,79.80
2022-09-12T14:46:00.607Z,80.40
2022-09-12T14:48:33.178Z,80.40
2022-09-12T14:51:02.795Z,80.50
2022-09-12T14:53:35.486Z,79.80
2022-09-12T14:56:11.242Z,80.30
2022-09-12T14:58:40.521Z,80.30
2022-09-12T15:01:26.780Z,80.80
2022-09-12T15:03:57.278Z,80.40
2022-09-12T15:06:30.217Z,80.00
2022-09-12T15:09:00.907Z,80.50
2022-09-12T15:11:28.989Z,80.00
2022-09-12T15:13:57.058Z,80.30
2022-09-12T15:16:25.124Z,79.80
2022-09-12T15:18:53.143Z,80.30
2022-09-12T15:21:22.097Z,80.30
2022-09-12T15:23:52.576Z,80.20
2022-09-12T15:26:22.493Z,80.90
2022-09-12T15:28:51.244Z,80.30
2022-09-12T15:31:25.136Z,81.20
2022-09-12T15:33:53.435Z,80.50
2022-09-12T15:36:24.265Z,79.60
2022-09-12T15:38:54.218Z,80.50
2022-09-12T15:41:23.976Z,80.90
2022-09-12T15:43:52.435Z,80.50
2022-09-12T15:46:21.118Z,80.70
2022-09-12T15:48:49.103Z,81.10
2022-09-12T15:51:19.165Z,80.80
2022-09-12T15:53:48.612Z,80.60
2022-09-12T15:56:19.494Z,80.90
2022-09-12T15:59:04.407Z,81.10
2022-09-12T16:01:32.449Z,81.30
2022-09-12T16:04:00.489Z,81.10
2022-09-12T16:06:33.592Z,81.50
2022-09-12T16:09:04.453Z,81.60
2022-09-12T16:11:33.983Z,81.40
2022-09-12T16:14:02.250Z,81.80
2022-09-12T16:16:30.210Z,81.60
2022-09-12T16:18:58.175Z,82.30
2022-09-12T16:21:26.522Z,82.60
2022-09-12T16:23:54.485Z,83.10
2022-09-12T16:26:22.467Z,82.90
2022-09-12T16:28:57.186Z,83.60
2022-09-12T16:31:26.092Z,83.10
2022-09-12T16:33:54.422Z,83.50
2022-09-12T16:36:23.939Z,83.90
2022-09-12T16:38:53.696Z,83.90
2022-09-12T16:41:24.637Z,84.20
2022-09-12T16:43:53.178Z,84.70
2022-09-12T16:46:24.184Z,85.00
2022-09-12T16:48:56.359Z,85.50
2022-09-12T16:51:26.794Z,85.00
2022-09-12T16:53:55.738Z,85.60
2022-09-12T16:56:24.403Z,85.90
2022-09-12T16:58:52.667Z,86.80
2022-09-12T17:01:24.192Z,86.70
2022-09-12T17:03:54.107Z,86.90
2022-09-12T17:06:22.247Z,87.40
2022-09-12T17:08:52.280Z,87.50
2022-09-12T17:11:22.490Z,87.30
2022-09-12T17:14:07.580Z,88.00
2022-09-12T17:16:39.930Z,88.20
2022-09-12T17:19:08.804Z,88.70
2022-09-12T17:21:38.106Z,90.30
2022-09-12T17:24:06.748Z,90.20
2022-09-12T17:26:34.829Z,90.10
2022-09-12T17:29:03.326Z,90.10
2022-09-12T17:31:32.262Z,90.40
2022-09-12T17:34:03.059Z,90.50
2022-09-12T17:36:32.520Z,90.60
2022-09-12T17:39:02.543Z,90.80
2022-09-12T17:41:32.786Z,91.00
2022-09-12T17:44:03.050Z,91.20
2022-09-12T17:46:34.922Z,91.20
2022-09-12T17:49:06.967Z,91.40
2022-09-12T17:51:35.453Z,91.70
2022-09-12T17:54:05.499Z,91.90
2022-09-12T17:56:35.602Z,92.20
2022-09-12T17:59:05.356Z,92.20
2022-09-12T18:01:50.724Z,92.60
2022-09-12T18:04:20.337Z,92.60
2022-09-12T18:06:49.156Z,92.40
2022-09-12T18:09:18.777Z,92.70
2022-09-12T18:11:48.131Z,93.10
2022-09-12T18:14:17.256Z,93.00
2022-09-12T18:16:45.664Z,93.90
2022-09-12T18:19:14.286Z,94.20
2022-09-12T18:21:43.924Z,94.00
2022-09-12T18:24:12.595Z,94.00
2022-09-12T18:26:41.025Z,94.50
2022-09-12T18:29:09.025Z,94.90
2022-09-12T18:31:37.314Z,94.90
2022-09-12T18:34:06.259Z,94.80
2022-09-12T18:36:34.347Z,95.90
2022-09-12T18:39:03.687Z,96.10
2022-09-12T18:41:32.261Z,96.20
2022-09-12T18:44:01.974Z,96.40
2022-09-12T18:46:32.050Z,96.50
2022-09-12T18:49:01.312Z,96.60
2022-09-12T18:51:31.655Z,97.20
2022-09-12T18:54:01.256Z,97.20
2022-09-12T18:56:33.287Z,97.40
2022-09-12T18:59:05.235Z,97.70
2022-09-12T19:01:35.033Z,98.30
2022-09-12T19:04:05.586Z,98.60
2022-09-12T19:06:35.414Z,98.60
2022-09-12T19:09:07.845Z,98.70
2022-09-12T19:11:39.432Z,99.20
2022-09-12T19:14:08.659Z,99.60
2022-09-12T19:16:36.924Z,99.90
2022-09-12T19:19:06.123Z,99.90
2022-09-12T19:21:35.368Z,99.90
2022-09-12T19:24:05.489Z,99.90
2022-09-12T19:26:33.864Z,99.90
2022-09-12T19:29:03.508Z,99.90
2022-09-12T19:31:32.444Z,99.90
2022-09-12T19:34:01.974Z,99.90
2022-09-12T19:36:47.114Z,99.90
2022-09-12T19:39:16.325Z,99.90
2022-09-12T19:41:44.933Z,99.90
2022-09-12T19:44:14.759Z,99.90
2022-09-12T19:46:42.848Z,99.90
2022-09-12T19:49:12.663Z,99.90
2022-09-12T19:51:41.077Z,99.90
2022-09-12T19:54:09.553Z,99.90
2022-09-12T19:56:37.510Z,99.90
2022-09-12T19:59:05.546Z,99.90
2022-09-12T20:01:37.045Z,99.90
2022-09-12T20:04:06.746Z,99.90
2022-09-12T20:06:35.012Z,99.90
2022-09-12T20:09:03.267Z,99.90
2022-09-12T20:11:31.222Z,99.90
2022-09-12T20:13:59.203Z,99.90
2022-09-12T20:16:29.500Z,99.90
2022-09-12T20:19:00.763Z,99.90
2022-09-12T20:21:32.907Z,99.90
2022-09-12T20:24:02.702Z,99.90
2022-09-12T20:26:31.053Z,99.90
2022-09-12T20:28:59.729Z,99.90
2022-09-12T20:31:28.103Z,99.90
2022-09-12T20:33:56.343Z,99.90
2022-09-12T20:36:26.199Z,99.90
2022-09-12T20:38:56.727Z,99.90
2022-09-12T20:41:25.669Z,99.90
2022-09-12T20:43:54.828Z,99.90
2022-09-12T20:46:23.697Z,99.90
2022-09-12T20:48:52.503Z,99.90
2022-09-12T20:51:20.786Z,99.90
2022-09-12T20:53:54.503Z,99.90
2022-09-12T20:56:23.043Z,99.90
2022-09-12T20:58:51.241Z,99.90
2022-09-12T21:01:23.961Z,99.90
2022-09-12T21:03:52.217Z,99.90
2022-09-12T21:06:21.250Z,99.90
2022-09-12T21:08:51.500Z,99.90
2022-09-12T21:11:20.907Z,99.90
2022-09-12T21:13:49.196Z,99.90
2022-09-12T21:16:19.154Z,99.90
2022-09-12T21:18:47.892Z,99.90
2022-09-12T21:21:17.070Z,99.90
2022-09-12T21:23:45.259Z,99.90
2022-09-12T21:26:14.960Z,99.90
2022-09-12T21:28:43.074Z,99.90
2022-09-12T21:31:11.429Z,99.90
2022-09-12T21:33:39.479Z,99.90
2022-09-12T21:36:08.606Z,99.90
2022-09-12T21:38:36.557Z,99.90
2022-09-12T21:41:06.595Z,99.90
2022-09-12T21:43:36.494Z,99.90
2022-09-12T21:46:06.141Z,99.90
2022-09-12T21:48:35.051Z,99.90
2022-09-12T21:51:03.470Z,99.90
2022-09-12T21:53:31.851Z,99.90
2022-09-12T21:56:02.562Z,99.90
2022-09-12T21:58:31.097Z,99.90
2022-09-12T22:01:01.322Z,99.90
2022-09-12T22:03:30.196Z,99.90
2022-09-12T22:05:58.992Z,99.90
2022-09-12T22:08:27.568Z,99.90
2022-09-12T22:11:00.416Z,99.90
2022-09-12T22:13:31.429Z,99.90
2022-09-12T22:16:03.311Z,99.90
2022-09-12T22:18:34.573Z,99.90
2022-09-12T22:21:04.034Z,99.90
2022-09-12T22:23:55.016Z,99.90
2022-09-12T22:26:23.246Z,99.90
2022-09-12T22:28:51.752Z,99.90
2022-09-12T22:31:21.802Z,99.90
2022-09-12T22:33:51.401Z,99.90
2022-09-12T22:36:19.443Z,99.90
2022-09-12T22:38:47.516Z,99.90
2022-09-12T22:41:16.233Z,99.90
2022-09-12T22:43:44.195Z,99.90
2022-09-12T22:46:13.297Z,99.90
2022-09-12T22:48:42.831Z,99.90
2022-09-12T22:51:11.488Z,99.90
2022-09-12T22:53:39.873Z,99.90
2022-09-12T22:56:08.761Z,99.90
2022-09-12T22:58:37.726Z,99.90
2022-09-12T23:01:06.679Z,99.90
2022-09-12T23:03:35.106Z,99.90
2022-09-12T23:06:04.927Z,99.90
2022-09-12T23:08:34.583Z,99.90
2022-09-12T23:11:03.678Z,99.90
2022-09-12T23:13:32.253Z,99.90
2022-09-12T23:16:01.040Z,99.90
2022-09-12T23:18:29.579Z,99.90
2022-09-12T23:20:59.199Z,99.90
2022-09-12T23:23:28.627Z,99.90
2022-09-12T23:26:04.473Z,99.90
2022-09-12T23:28:32.759Z,99.90
2022-09-12T23:31:01.280Z,99.90
2022-09-12T23:33:30.035Z,99.90
2022-09-12T23:36:02.107Z,99.90
2022-09-12T23:38:32.405Z,99.90
2022-09-12T23:41:01.698Z,99.90
2022-09-12T23:43:30.227Z,99.90
2022-09-12T23:45:58.812Z,99.90
2022-09-12T23:48:26.955Z,99.90
2022-09-12T23:50:55.530Z,99.90
2022-09-12T23:53:23.727Z,99.90
2022-09-12T23:55:53.475Z,99.90
2022-09-12T23:58:22.519Z,99.90
